sensor_id;sensor_type;location;lat;lon;timestamp;P1;durP1;ratioP1;P2;durP2;ratioP2
6053;SDS011;3055;50.886;14.814;2023-03-04T00:02:24;37.63;;;18.97;;
6053;SDS011;3055;50.886;14.814;2023-03-04T00:04:51;37.60;;;19.77;;
6053;SDS011;3055;50.886;14.814;2023-03-04T00:07:18;38.10;;;18.93;;
6053;SDS011;3055;50.886;14.814;2023-03-04T00:09:45;35.90;;;18.67;;
6053;SDS011;3055;50.886;14.814;2023-03-04T00:12:12;39.87;;;19.90;;
6053;SDS011;3055;50.886;14.814;2023-03-04T00:14:39;43.83;;;18.30;;
6053;SDS011;3055;50.886;14.814;2023-03-04T00:17:08;42.83;;;20.73;;
6053;SDS011;3055;50.886;14.814;2023-03-04T00:19:35;45.60;;;20.97;;
6053;SDS011;3055;50.886;14.814;2023-03-04T00:22:02;41.80;;;20.03;;
6053;SDS011;3055;50.886;14.814;2023-03-04T00:24:29;41.03;;;20.20;;
6053;SDS011;3055;50.886;14.814;2023-03-04T00:26:57;38.67;;;18.73;;
6053;SDS011;3055;50.886;14.814;2023-03-04T00:29:24;40.23;;;18.30;;
6053;SDS011;3055;50.886;14.814;2023-03-04T00:31:52;37.73;;;19.40;;
6053;SDS011;3055;50.886;14.814;2023-03-04T00:34:20;40.47;;;19.13;;
6053;SDS011;3055;50.886;14.814;2023-03-04T00:36:47;42.47;;;19.83;;
6053;SDS011;3055;50.886;14.814;2023-03-04T00:39:15;35.70;;;18.63;;
6053;SDS011;3055;50.886;14.814;2023-03-04T00:41:42;35.90;;;18.63;;
6053;SDS011;3055;50.886;14.814;2023-03-04T00:44:09;45.20;;;20.60;;
6053;SDS011;3055;50.886;14.814;2023-03-04T00:46:36;40.10;;;20.10;;
6053;SDS011;3055;50.886;14.814;2023-03-04T00:49:03;37.23;;;19.27;;
6053;SDS011;3055;50.886;14.814;2023-03-04T00:51:31;46.67;;;19.70;;
6053;SDS011;3055;50.886;14.814;2023-03-04T00:53:59;34.27;;;17.30;;
6053;SDS011;3055;50.886;14.814;2023-03-04T00:56:26;33.40;;;17.37;;
6053;SDS011;3055;50.886;14.814;2023-03-04T00:58:53;42.60;;;19.20;;
6053;SDS011;3055;50.886;14.814;2023-03-04T01:01:21;35.83;;;18.17;;
6053;SDS011;3055;50.886;14.814;2023-03-04T01:03:48;40.57;;;18.73;;
6053;SDS011;3055;50.886;14.814;2023-03-04T01:06:15;33.67;;;17.80;;
6053;SDS011;3055;50.886;14.814;2023-03-04T01:08:43;32.73;;;17.53;;
6053;SDS011;3055;50.886;14.814;2023-03-04T01:11:10;29.07;;;16.47;;
6053;SDS011;3055;50.886;14.814;2023-03-04T01:13:37;24.50;;;14.83;;
6053;SDS011;3055;50.886;14.814;2023-03-04T01:16:05;32.83;;;17.13;;
6053;SDS011;3055;50.886;14.814;2023-03-04T01:18:35;33.67;;;17.27;;
6053;SDS011;3055;50.886;14.814;2023-03-04T01:21:02;27.03;;;15.43;;
6053;SDS011;3055;50.886;14.814;2023-03-04T01:23:29;31.60;;;17.13;;
6053;SDS011;3055;50.886;14.814;2023-03-04T01:25:58;31.57;;;17.20;;
6053;SDS011;3055;50.886;14.814;2023-03-04T01:28:25;30.40;;;15.93;;
6053;SDS011;3055;50.886;14.814;2023-03-04T01:30:52;32.57;;;17.50;;
6053;SDS011;3055;50.886;14.814;2023-03-04T01:33:19;34.20;;;17.23;;
6053;SDS011;3055;50.886;14.814;2023-03-04T01:35:46;33.03;;;17.97;;
6053;SDS011;3055;50.886;14.814;2023-03-04T01:38:13;34.30;;;16.87;;
6053;SDS011;3055;50.886;14.814;2023-03-04T01:40:40;32.23;;;18.00;;
6053;SDS011;3055;50.886;14.814;2023-03-04T01:43:10;35.07;;;18.27;;
6053;SDS011;3055;50.886;14.814;2023-03-04T01:45:41;32.70;;;17.83;;
6053;SDS011;3055;50.886;14.814;2023-03-04T01:48:08;35.27;;;17.47;;
6053;SDS011;3055;50.886;14.814;2023-03-04T01:50:38;33.60;;;17.77;;
6053;SDS011;3055;50.886;14.814;2023-03-04T01:53:05;37.80;;;19.30;;
6053;SDS011;3055;50.886;14.814;2023-03-04T01:55:32;34.27;;;17.90;;
6053;SDS011;3055;50.886;14.814;2023-03-04T01:57:59;36.17;;;17.83;;
6053;SDS011;3055;50.886;14.814;2023-03-04T02:00:28;33.90;;;18.53;;
6053;SDS011;3055;50.886;14.814;2023-03-04T02:02:59;31.07;;;17.63;;
6053;SDS011;3055;50.886;14.814;2023-03-04T02:05:31;33.43;;;18.97;;
6053;SDS011;3055;50.886;14.814;2023-03-04T02:07:59;35.63;;;20.10;;
6053;SDS011;3055;50.886;14.814;2023-03-04T02:10:26;39.23;;;19.33;;
6053;SDS011;3055;50.886;14.814;2023-03-04T02:12:53;35.70;;;18.13;;
6053;SDS011;3055;50.886;14.814;2023-03-04T02:15:21;32.17;;;17.90;;
6053;SDS011;3055;50.886;14.814;2023-03-04T02:17:50;32.33;;;17.43;;
6053;SDS011;3055;50.886;14.814;2023-03-04T02:20:21;33.47;;;17.30;;
6053;SDS011;3055;50.886;14.814;2023-03-04T02:22:58;30.40;;;16.67;;
6053;SDS011;3055;50.886;14.814;2023-03-04T02:25:32;31.23;;;17.80;;
6053;SDS011;3055;50.886;14.814;2023-03-04T02:28:03;30.53;;;17.87;;
6053;SDS011;3055;50.886;14.814;2023-03-04T02:30:30;32.07;;;17.60;;
6053;SDS011;3055;50.886;14.814;2023-03-04T02:32:59;25.20;;;15.37;;
6053;SDS011;3055;50.886;14.814;2023-03-04T02:35:26;30.23;;;15.67;;
6053;SDS011;3055;50.886;14.814;2023-03-04T02:37:53;24.23;;;15.37;;
6053;SDS011;3055;50.886;14.814;2023-03-04T02:40:22;25.87;;;16.13;;
6053;SDS011;3055;50.886;14.814;2023-03-04T02:42:51;26.83;;;16.47;;
6053;SDS011;3055;50.886;14.814;2023-03-04T02:45:39;26.83;;;15.80;;
6053;SDS011;3055;50.886;14.814;2023-03-04T02:48:09;25.00;;;15.30;;
6053;SDS011;3055;50.886;14.814;2023-03-04T02:50:38;25.93;;;16.27;;
6053;SDS011;3055;50.886;14.814;2023-03-04T02:53:07;28.47;;;17.33;;
6053;SDS011;3055;50.886;14.814;2023-03-04T02:55:34;27.20;;;17.23;;
6053;SDS011;3055;50.886;14.814;2023-03-04T02:58:01;26.93;;;17.20;;
6053;SDS011;3055;50.886;14.814;2023-03-04T03:00:29;28.57;;;18.20;;
6053;SDS011;3055;50.886;14.814;2023-03-04T03:02:57;27.87;;;18.83;;
6053;SDS011;3055;50.886;14.814;2023-03-04T03:05:24;27.90;;;17.27;;
6053;SDS011;3055;50.886;14.814;2023-03-04T03:07:53;28.73;;;17.90;;
6053;SDS011;3055;50.886;14.814;2023-03-04T03:10:20;29.23;;;18.37;;
6053;SDS011;3055;50.886;14.814;2023-03-04T03:12:47;26.20;;;18.00;;
6053;SDS011;3055;50.886;14.814;2023-03-04T03:15:14;26.87;;;18.77;;
6053;SDS011;3055;50.886;14.814;2023-03-04T03:17:41;26.90;;;17.67;;
6053;SDS011;3055;50.886;14.814;2023-03-04T03:20:11;30.70;;;18.07;;
6053;SDS011;3055;50.886;14.814;2023-03-04T03:22:39;27.00;;;17.20;;
6053;SDS011;3055;50.886;14.814;2023-03-04T03:25:07;26.00;;;16.87;;
6053;SDS011;3055;50.886;14.814;2023-03-04T03:27:35;22.63;;;16.23;;
6053;SDS011;3055;50.886;14.814;2023-03-04T03:30:02;25.03;;;16.80;;
6053;SDS011;3055;50.886;14.814;2023-03-04T03:32:30;24.77;;;17.43;;
6053;SDS011;3055;50.886;14.814;2023-03-04T03:34:57;26.83;;;16.30;;
6053;SDS011;3055;50.886;14.814;2023-03-04T03:37:25;26.60;;;17.80;;
6053;SDS011;3055;50.886;14.814;2023-03-04T03:39:52;24.73;;;16.63;;
6053;SDS011;3055;50.886;14.814;2023-03-04T03:42:19;26.33;;;17.07;;
6053;SDS011;3055;50.886;14.814;2023-03-04T03:44:46;23.03;;;16.47;;
6053;SDS011;3055;50.886;14.814;2023-03-04T03:47:14;22.87;;;15.90;;
6053;SDS011;3055;50.886;14.814;2023-03-04T03:49:41;23.63;;;16.53;;
6053;SDS011;3055;50.886;14.814;2023-03-04T03:52:08;24.47;;;18.17;;
6053;SDS011;3055;50.886;14.814;2023-03-04T03:54:37;23.97;;;16.87;;
6053;SDS011;3055;50.886;14.814;2023-03-04T03:57:04;22.40;;;15.37;;
6053;SDS011;3055;50.886;14.814;2023-03-04T03:59:31;24.13;;;15.93;;
6053;SDS011;3055;50.886;14.814;2023-03-04T04:01:58;22.40;;;16.13;;
6053;SDS011;3055;50.886;14.814;2023-03-04T04:04:25;23.00;;;16.03;;
6053;SDS011;3055;50.886;14.814;2023-03-04T04:06:52;21.00;;;15.77;;
6053;SDS011;3055;50.886;14.814;2023-03-04T04:09:19;24.80;;;16.07;;
6053;SDS011;3055;50.886;14.814;2023-03-04T04:11:47;20.33;;;15.33;;
6053;SDS011;3055;50.886;14.814;2023-03-04T04:14:15;20.97;;;15.90;;
6053;SDS011;3055;50.886;14.814;2023-03-04T04:16:42;18.23;;;15.13;;
6053;SDS011;3055;50.886;14.814;2023-03-04T04:19:10;23.67;;;15.97;;
6053;SDS011;3055;50.886;14.814;2023-03-04T04:21:42;19.33;;;14.30;;
6053;SDS011;3055;50.886;14.814;2023-03-04T04:24:09;19.23;;;14.53;;
6053;SDS011;3055;50.886;14.814;2023-03-04T04:26:36;19.97;;;14.60;;
6053;SDS011;3055;50.886;14.814;2023-03-04T04:29:05;19.27;;;14.07;;
6053;SDS011;3055;50.886;14.814;2023-03-04T04:31:32;18.43;;;13.10;;
6053;SDS011;3055;50.886;14.814;2023-03-04T04:33:59;20.43;;;13.43;;
6053;SDS011;3055;50.886;14.814;2023-03-04T04:36:26;20.13;;;13.90;;
6053;SDS011;3055;50.886;14.814;2023-03-04T04:38:53;19.73;;;13.73;;
6053;SDS011;3055;50.886;14.814;2023-03-04T04:41:22;17.70;;;12.80;;
6053;SDS011;3055;50.886;14.814;2023-03-04T04:43:50;22.23;;;13.93;;
6053;SDS011;3055;50.886;14.814;2023-03-04T04:46:19;16.20;;;12.33;;
6053;SDS011;3055;50.886;14.814;2023-03-04T04:48:46;17.93;;;13.10;;
6053;SDS011;3055;50.886;14.814;2023-03-04T04:51:13;20.10;;;12.37;;
6053;SDS011;3055;50.886;14.814;2023-03-04T04:53:40;18.13;;;12.33;;
6053;SDS011;3055;50.886;14.814;2023-03-04T04:56:09;16.90;;;12.40;;
6053;SDS011;3055;50.886;14.814;2023-03-04T04:58:37;17.57;;;11.87;;
6053;SDS011;3055;50.886;14.814;2023-03-04T05:01:04;19.27;;;13.23;;
6053;SDS011;3055;50.886;14.814;2023-03-04T05:03:33;19.30;;;12.37;;
6053;SDS011;3055;50.886;14.814;2023-03-04T05:06:02;19.90;;;14.10;;
6053;SDS011;3055;50.886;14.814;2023-03-04T05:08:30;18.40;;;11.73;;
6053;SDS011;3055;50.886;14.814;2023-03-04T05:10:57;17.80;;;11.57;;
6053;SDS011;3055;50.886;14.814;2023-03-04T05:13:24;16.80;;;12.80;;
6053;SDS011;3055;50.886;14.814;2023-03-04T05:15:51;18.40;;;12.73;;
6053;SDS011;3055;50.886;14.814;2023-03-04T05:18:19;18.60;;;12.43;;
6053;SDS011;3055;50.886;14.814;2023-03-04T05:20:50;19.63;;;12.23;;
6053;SDS011;3055;50.886;14.814;2023-03-04T05:23:17;17.40;;;12.13;;
6053;SDS011;3055;50.886;14.814;2023-03-04T05:25:45;19.57;;;13.80;;
6053;SDS011;3055;50.886;14.814;2023-03-04T05:28:13;17.80;;;12.80;;
6053;SDS011;3055;50.886;14.814;2023-03-04T05:30:40;16.93;;;13.00;;
6053;SDS011;3055;50.886;14.814;2023-03-04T05:33:09;18.63;;;12.90;;
6053;SDS011;3055;50.886;14.814;2023-03-04T05:35:37;20.07;;;12.37;;
6053;SDS011;3055;50.886;14.814;2023-03-04T05:38:08;21.93;;;12.47;;
6053;SDS011;3055;50.886;14.814;2023-03-04T05:40:36;19.10;;;12.43;;
6053;SDS011;3055;50.886;14.814;2023-03-04T05:43:04;20.17;;;12.90;;
6053;SDS011;3055;50.886;14.814;2023-03-04T05:45:31;17.30;;;12.67;;
6053;SDS011;3055;50.886;14.814;2023-03-04T05:47:59;23.10;;;13.43;;
6053;SDS011;3055;50.886;14.814;2023-03-04T05:50:27;16.77;;;12.57;;
6053;SDS011;3055;50.886;14.814;2023-03-04T05:52:54;18.07;;;11.83;;
6053;SDS011;3055;50.886;14.814;2023-03-04T05:55:22;17.90;;;12.03;;
6053;SDS011;3055;50.886;14.814;2023-03-04T05:57:49;20.10;;;13.17;;
6053;SDS011;3055;50.886;14.814;2023-03-04T06:00:17;17.07;;;11.93;;
6053;SDS011;3055;50.886;14.814;2023-03-04T06:02:44;19.40;;;12.33;;
6053;SDS011;3055;50.886;14.814;2023-03-04T06:05:11;17.17;;;11.10;;
6053;SDS011;3055;50.886;14.814;2023-03-04T06:07:40;19.30;;;11.90;;
6053;SDS011;3055;50.886;14.814;2023-03-04T06:10:08;18.90;;;12.27;;
6053;SDS011;3055;50.886;14.814;2023-03-04T06:12:38;15.97;;;11.17;;
6053;SDS011;3055;50.886;14.814;2023-03-04T06:15:06;21.40;;;12.00;;
6053;SDS011;3055;50.886;14.814;2023-03-04T06:17:34;16.23;;;11.87;;
6053;SDS011;3055;50.886;14.814;2023-03-04T06:20:03;22.87;;;12.70;;
6053;SDS011;3055;50.886;14.814;2023-03-04T06:22:31;18.27;;;11.50;;
6053;SDS011;3055;50.886;14.814;2023-03-04T06:24:58;19.60;;;11.73;;
6053;SDS011;3055;50.886;14.814;2023-03-04T06:27:25;19.30;;;12.27;;
6053;SDS011;3055;50.886;14.814;2023-03-04T06:29:54;20.03;;;10.83;;
6053;SDS011;3055;50.886;14.814;2023-03-04T06:32:21;23.27;;;11.13;;
6053;SDS011;3055;50.886;14.814;2023-03-04T06:34:48;16.13;;;10.43;;
6053;SDS011;3055;50.886;14.814;2023-03-04T06:37:15;15.33;;;10.03;;
6053;SDS011;3055;50.886;14.814;2023-03-04T06:39:42;15.17;;;9.33;;
6053;SDS011;3055;50.886;14.814;2023-03-04T06:42:09;18.17;;;9.77;;
6053;SDS011;3055;50.886;14.814;2023-03-04T06:44:36;17.53;;;9.83;;
6053;SDS011;3055;50.886;14.814;2023-03-04T06:47:06;17.43;;;11.07;;
6053;SDS011;3055;50.886;14.814;2023-03-04T06:49:34;15.77;;;8.93;;
6053;SDS011;3055;50.886;14.814;2023-03-04T06:52:02;14.70;;;9.83;;
6053;SDS011;3055;50.886;14.814;2023-03-04T06:54:29;17.53;;;9.00;;
6053;SDS011;3055;50.886;14.814;2023-03-04T06:56:56;17.67;;;9.87;;
6053;SDS011;3055;50.886;14.814;2023-03-04T06:59:23;14.33;;;9.10;;
6053;SDS011;3055;50.886;14.814;2023-03-04T07:01:50;15.30;;;9.00;;
6053;SDS011;3055;50.886;14.814;2023-03-04T07:04:18;13.37;;;8.33;;
6053;SDS011;3055;50.886;14.814;2023-03-04T07:06:48;17.40;;;8.40;;
6053;SDS011;3055;50.886;14.814;2023-03-04T07:09:15;18.93;;;9.67;;
6053;SDS011;3055;50.886;14.814;2023-03-04T07:11:42;14.00;;;8.10;;
6053;SDS011;3055;50.886;14.814;2023-03-04T07:14:09;17.13;;;7.97;;
6053;SDS011;3055;50.886;14.814;2023-03-04T07:16:37;18.27;;;8.90;;
6053;SDS011;3055;50.886;14.814;2023-03-04T07:19:04;17.33;;;8.20;;
6053;SDS011;3055;50.886;14.814;2023-03-04T07:21:32;12.90;;;7.60;;
6053;SDS011;3055;50.886;14.814;2023-03-04T07:23:59;12.83;;;8.40;;
6053;SDS011;3055;50.886;14.814;2023-03-04T07:26:26;12.73;;;8.27;;
6053;SDS011;3055;50.886;14.814;2023-03-04T07:28:53;13.70;;;8.33;;
6053;SDS011;3055;50.886;14.814;2023-03-04T07:31:23;14.40;;;7.70;;
6053;SDS011;3055;50.886;14.814;2023-03-04T07:33:51;13.93;;;7.77;;
6053;SDS011;3055;50.886;14.814;2023-03-04T07:36:21;11.00;;;8.23;;
6053;SDS011;3055;50.886;14.814;2023-03-04T07:38:49;11.37;;;7.97;;
6053;SDS011;3055;50.886;14.814;2023-03-04T07:41:19;13.03;;;8.47;;
6053;SDS011;3055;50.886;14.814;2023-03-04T07:43:47;13.53;;;7.30;;
6053;SDS011;3055;50.886;14.814;2023-03-04T07:46:14;12.20;;;7.63;;
6053;SDS011;3055;50.886;14.814;2023-03-04T07:48:41;9.63;;;7.23;;
6053;SDS011;3055;50.886;14.814;2023-03-04T07:51:09;12.27;;;7.40;;
6053;SDS011;3055;50.886;14.814;2023-03-04T07:53:39;11.80;;;7.77;;
6053;SDS011;3055;50.886;14.814;2023-03-04T07:56:10;11.13;;;8.57;;
6053;SDS011;3055;50.886;14.814;2023-03-04T07:58:38;14.33;;;8.33;;
6053;SDS011;3055;50.886;14.814;2023-03-04T08:01:09;12.67;;;8.00;;
6053;SDS011;3055;50.886;14.814;2023-03-04T08:03:36;13.50;;;8.77;;
6053;SDS011;3055;50.886;14.814;2023-03-04T08:06:04;14.70;;;9.17;;
6053;SDS011;3055;50.886;14.814;2023-03-04T08:08:32;13.60;;;8.03;;
6053;SDS011;3055;50.886;14.814;2023-03-04T08:10:59;15.17;;;8.53;;
6053;SDS011;3055;50.886;14.814;2023-03-04T08:13:31;19.87;;;8.90;;
6053;SDS011;3055;50.886;14.814;2023-03-04T08:15:59;19.13;;;10.23;;
6053;SDS011;3055;50.886;14.814;2023-03-04T08:18:26;14.40;;;8.97;;
6053;SDS011;3055;50.886;14.814;2023-03-04T08:20:53;14.40;;;8.27;;
6053;SDS011;3055;50.886;14.814;2023-03-04T08:23:21;13.53;;;9.43;;
6053;SDS011;3055;50.886;14.814;2023-03-04T08:25:48;12.00;;;8.93;;
6053;SDS011;3055;50.886;14.814;2023-03-04T08:28:15;14.03;;;8.23;;
6053;SDS011;3055;50.886;14.814;2023-03-04T08:30:50;14.73;;;9.07;;
6053;SDS011;3055;50.886;14.814;2023-03-04T08:33:18;14.43;;;8.97;;
6053;SDS011;3055;50.886;14.814;2023-03-04T08:35:46;18.13;;;8.80;;
6053;SDS011;3055;50.886;14.814;2023-03-04T08:38:13;12.17;;;9.13;;
6053;SDS011;3055;50.886;14.814;2023-03-04T08:40:40;12.87;;;8.90;;
6053;SDS011;3055;50.886;14.814;2023-03-04T08:43:07;12.83;;;9.20;;
6053;SDS011;3055;50.886;14.814;2023-03-04T08:45:34;12.60;;;8.03;;
6053;SDS011;3055;50.886;14.814;2023-03-04T08:48:03;10.73;;;8.17;;
6053;SDS011;3055;50.886;14.814;2023-03-04T08:50:30;14.13;;;8.93;;
6053;SDS011;3055;50.886;14.814;2023-03-04T08:52:57;10.23;;;7.60;;
6053;SDS011;3055;50.886;14.814;2023-03-04T08:55:25;13.00;;;8.03;;
6053;SDS011;3055;50.886;14.814;2023-03-04T08:57:52;10.53;;;7.60;;
6053;SDS011;3055;50.886;14.814;2023-03-04T09:00:19;12.40;;;8.13;;
6053;SDS011;3055;50.886;14.814;2023-03-04T09:02:47;10.83;;;7.20;;
6053;SDS011;3055;50.886;14.814;2023-03-04T09:05:16;10.87;;;7.07;;
6053;SDS011;3055;50.886;14.814;2023-03-04T09:07:43;11.53;;;8.07;;
6053;SDS011;3055;50.886;14.814;2023-03-04T09:10:11;11.57;;;7.20;;
6053;SDS011;3055;50.886;14.814;2023-03-04T09:12:38;10.57;;;7.07;;
6053;SDS011;3055;50.886;14.814;2023-03-04T09:15:06;11.63;;;7.23;;
6053;SDS011;3055;50.886;14.814;2023-03-04T09:17:33;10.70;;;7.37;;
6053;SDS011;3055;50.886;14.814;2023-03-04T09:20:00;8.60;;;7.50;;
6053;SDS011;3055;50.886;14.814;2023-03-04T09:22:30;8.70;;;6.83;;
6053;SDS011;3055;50.886;14.814;2023-03-04T09:24:57;7.90;;;6.73;;
6053;SDS011;3055;50.886;14.814;2023-03-04T09:27:24;9.67;;;7.10;;
6053;SDS011;3055;50.886;14.814;2023-03-04T09:29:51;8.93;;;7.30;;
6053;SDS011;3055;50.886;14.814;2023-03-04T09:32:18;7.13;;;6.17;;
6053;SDS011;3055;50.886;14.814;2023-03-04T09:34:45;9.63;;;6.87;;
6053;SDS011;3055;50.886;14.814;2023-03-04T09:37:12;11.67;;;6.80;;
6053;SDS011;3055;50.886;14.814;2023-03-04T09:39:41;11.37;;;7.80;;
6053;SDS011;3055;50.886;14.814;2023-03-04T09:42:08;10.20;;;7.03;;
6053;SDS011;3055;50.886;14.814;2023-03-04T09:44:43;9.27;;;7.40;;
6053;SDS011;3055;50.886;14.814;2023-03-04T09:47:12;10.80;;;6.97;;
6053;SDS011;3055;50.886;14.814;2023-03-04T09:49:42;8.93;;;7.23;;
6053;SDS011;3055;50.886;14.814;2023-03-04T09:52:14;8.67;;;6.73;;
6053;SDS011;3055;50.886;14.814;2023-03-04T09:54:56;10.17;;;6.63;;
6053;SDS011;3055;50.886;14.814;2023-03-04T09:57:29;10.83;;;7.60;;
6053;SDS011;3055;50.886;14.814;2023-03-04T10:00:08;7.13;;;6.23;;
6053;SDS011;3055;50.886;14.814;2023-03-04T10:02:44;9.83;;;6.53;;
6053;SDS011;3055;50.886;14.814;2023-03-04T10:05:27;11.07;;;6.90;;
6053;SDS011;3055;50.886;14.814;2023-03-04T10:07:57;7.50;;;6.37;;
6053;SDS011;3055;50.886;14.814;2023-03-04T10:10:29;28.00;;;15.00;;
6053;SDS011;3055;50.886;14.814;2023-03-04T10:13:01;11.23;;;7.47;;
6053;SDS011;3055;50.886;14.814;2023-03-04T10:15:31;9.43;;;6.27;;
6053;SDS011;3055;50.886;14.814;2023-03-04T10:18:06;10.27;;;7.33;;
6053;SDS011;3055;50.886;14.814;2023-03-04T10:20:47;7.70;;;6.20;;
6053;SDS011;3055;50.886;14.814;2023-03-04T10:23:20;10.57;;;6.70;;
6053;SDS011;3055;50.886;14.814;2023-03-04T10:25:51;9.07;;;6.30;;
6053;SDS011;3055;50.886;14.814;2023-03-04T10:28:19;8.07;;;6.30;;
6053;SDS011;3055;50.886;14.814;2023-03-04T10:30:51;8.70;;;6.57;;
6053;SDS011;3055;50.886;14.814;2023-03-04T10:33:24;9.67;;;6.43;;
6053;SDS011;3055;50.886;14.814;2023-03-04T10:35:54;11.87;;;6.10;;
6053;SDS011;3055;50.886;14.814;2023-03-04T10:38:25;11.93;;;8.27;;
6053;SDS011;3055;50.886;14.814;2023-03-04T10:40:58;12.73;;;8.67;;
6053;SDS011;3055;50.886;14.814;2023-03-04T10:43:26;10.33;;;6.80;;
6053;SDS011;3055;50.886;14.814;2023-03-04T10:45:54;9.77;;;6.83;;
6053;SDS011;3055;50.886;14.814;2023-03-04T10:48:23;9.10;;;6.17;;
6053;SDS011;3055;50.886;14.814;2023-03-04T10:50:52;10.27;;;6.40;;
6053;SDS011;3055;50.886;14.814;2023-03-04T10:53:24;7.17;;;6.03;;
6053;SDS011;3055;50.886;14.814;2023-03-04T10:55:59;7.13;;;6.07;;
6053;SDS011;3055;50.886;14.814;2023-03-04T10:58:27;7.13;;;5.93;;
6053;SDS011;3055;50.886;14.814;2023-03-04T11:00:58;19.23;;;11.40;;
6053;SDS011;3055;50.886;14.814;2023-03-04T11:03:28;11.27;;;7.43;;
6053;SDS011;3055;50.886;14.814;2023-03-04T11:06:10;30.00;;;16.90;;
6053;SDS011;3055;50.886;14.814;2023-03-04T11:08:42;8.70;;;6.73;;
6053;SDS011;3055;50.886;14.814;2023-03-04T11:11:22;6.90;;;5.47;;
6053;SDS011;3055;50.886;14.814;2023-03-04T11:13:54;6.70;;;5.07;;
6053;SDS011;3055;50.886;14.814;2023-03-04T11:16:25;7.67;;;5.80;;
6053;SDS011;3055;50.886;14.814;2023-03-04T11:18:56;10.10;;;7.23;;
6053;SDS011;3055;50.886;14.814;2023-03-04T11:21:30;6.03;;;5.10;;
6053;SDS011;3055;50.886;14.814;2023-03-04T11:24:03;10.93;;;9.53;;
6053;SDS011;3055;50.886;14.814;2023-03-04T11:26:37;7.93;;;6.90;;
6053;SDS011;3055;50.886;14.814;2023-03-04T11:29:07;10.10;;;5.80;;
6053;SDS011;3055;50.886;14.814;2023-03-04T11:31:42;7.93;;;5.33;;
6053;SDS011;3055;50.886;14.814;2023-03-04T11:34:14;7.17;;;5.37;;
6053;SDS011;3055;50.886;14.814;2023-03-04T11:36:50;8.77;;;5.53;;
6053;SDS011;3055;50.886;14.814;2023-03-04T11:39:23;8.07;;;5.53;;
6053;SDS011;3055;50.886;14.814;2023-03-04T11:41:59;7.27;;;5.43;;
6053;SDS011;3055;50.886;14.814;2023-03-04T11:44:30;8.20;;;5.93;;
6053;SDS011;3055;50.886;14.814;2023-03-04T11:47:13;7.37;;;6.47;;
6053;SDS011;3055;50.886;14.814;2023-03-04T11:52:43;12.00;;;7.73;;
6053;SDS011;3055;50.886;14.814;2023-03-04T11:55:39;7.87;;;5.33;;
6053;SDS011;3055;50.886;14.814;2023-03-04T12:01:17;6.80;;;4.83;;
6053;SDS011;3055;50.886;14.814;2023-03-04T12:06:44;6.63;;;4.87;;
6053;SDS011;3055;50.886;14.814;2023-03-04T12:09:28;6.67;;;5.27;;
6053;SDS011;3055;50.886;14.814;2023-03-04T12:12:09;6.37;;;4.80;;
6053;SDS011;3055;50.886;14.814;2023-03-04T12:14:55;5.73;;;4.47;;
6053;SDS011;3055;50.886;14.814;2023-03-04T12:17:41;8.13;;;4.67;;
6053;SDS011;3055;50.886;14.814;2023-03-04T12:23:21;7.50;;;4.90;;
6053;SDS011;3055;50.886;14.814;2023-03-04T12:26:07;5.03;;;4.60;;
6053;SDS011;3055;50.886;14.814;2023-03-04T12:28:47;6.87;;;5.00;;
6053;SDS011;3055;50.886;14.814;2023-03-04T12:31:27;5.77;;;4.67;;
6053;SDS011;3055;50.886;14.814;2023-03-04T12:37:07;10.40;;;5.50;;
6053;SDS011;3055;50.886;14.814;2023-03-04T12:39:59;9.67;;;5.30;;
6053;SDS011;3055;50.886;14.814;2023-03-04T12:42:44;8.20;;;5.43;;
6053;SDS011;3055;50.886;14.814;2023-03-04T12:45:23;5.87;;;4.70;;
6053;SDS011;3055;50.886;14.814;2023-03-04T12:47:57;5.27;;;4.77;;
6053;SDS011;3055;50.886;14.814;2023-03-04T12:50:35;5.13;;;4.63;;
6053;SDS011;3055;50.886;14.814;2023-03-04T12:53:12;5.20;;;4.53;;
6053;SDS011;3055;50.886;14.814;2023-03-04T12:55:46;6.17;;;4.27;;
6053;SDS011;3055;50.886;14.814;2023-03-04T12:58:17;5.27;;;4.77;;
6053;SDS011;3055;50.886;14.814;2023-03-04T13:00:47;6.63;;;4.87;;
6053;SDS011;3055;50.886;14.814;2023-03-04T13:03:27;5.63;;;4.90;;
6053;SDS011;3055;50.886;14.814;2023-03-04T13:06:09;6.40;;;4.83;;
6053;SDS011;3055;50.886;14.814;2023-03-04T13:08:47;6.33;;;4.37;;
6053;SDS011;3055;50.886;14.814;2023-03-04T13:11:37;6.33;;;4.53;;
6053;SDS011;3055;50.886;14.814;2023-03-04T13:14:21;5.47;;;4.40;;
6053;SDS011;3055;50.886;14.814;2023-03-04T13:16:51;6.10;;;4.03;;
6053;SDS011;3055;50.886;14.814;2023-03-04T13:28:23;4.77;;;4.30;;
6053;SDS011;3055;50.886;14.814;2023-03-04T13:33:49;5.80;;;4.23;;
6053;SDS011;3055;50.886;14.814;2023-03-04T13:39:27;4.37;;;3.97;;
6053;SDS011;3055;50.886;14.814;2023-03-04T13:41:57;6.67;;;4.47;;
6053;SDS011;3055;50.886;14.814;2023-03-04T13:44:32;4.67;;;4.23;;
6053;SDS011;3055;50.886;14.814;2023-03-04T13:47:21;8.53;;;5.23;;
6053;SDS011;3055;50.886;14.814;2023-03-04T13:59:22;5.43;;;4.70;;
6053;SDS011;3055;50.886;14.814;2023-03-04T14:04:40;5.70;;;5.03;;
6053;SDS011;3055;50.886;14.814;2023-03-04T14:07:18;9.40;;;6.77;;
6053;SDS011;3055;50.886;14.814;2023-03-04T14:09:54;8.40;;;4.80;;
6053;SDS011;3055;50.886;14.814;2023-03-04T14:12:22;6.50;;;5.27;;
6053;SDS011;3055;50.886;14.814;2023-03-04T14:14:50;6.23;;;4.80;;
6053;SDS011;3055;50.886;14.814;2023-03-04T14:17:20;5.73;;;5.13;;
6053;SDS011;3055;50.886;14.814;2023-03-04T14:19:50;8.47;;;5.67;;
6053;SDS011;3055;50.886;14.814;2023-03-04T14:22:19;7.10;;;5.33;;
6053;SDS011;3055;50.886;14.814;2023-03-04T14:24:56;6.83;;;4.93;;
6053;SDS011;3055;50.886;14.814;2023-03-04T14:27:24;9.87;;;4.70;;
6053;SDS011;3055;50.886;14.814;2023-03-04T14:29:54;7.77;;;4.90;;
6053;SDS011;3055;50.886;14.814;2023-03-04T14:32:22;8.00;;;5.57;;
6053;SDS011;3055;50.886;14.814;2023-03-04T14:34:50;7.23;;;5.47;;
6053;SDS011;3055;50.886;14.814;2023-03-04T14:37:22;5.30;;;4.30;;
6053;SDS011;3055;50.886;14.814;2023-03-04T14:39:51;7.50;;;4.60;;
6053;SDS011;3055;50.886;14.814;2023-03-04T14:42:23;5.73;;;4.50;;
6053;SDS011;3055;50.886;14.814;2023-03-04T14:44:55;5.93;;;4.73;;
6053;SDS011;3055;50.886;14.814;2023-03-04T14:47:25;4.93;;;4.23;;
6053;SDS011;3055;50.886;14.814;2023-03-04T14:50:03;8.00;;;5.10;;
6053;SDS011;3055;50.886;14.814;2023-03-04T14:52:33;7.50;;;5.40;;
6053;SDS011;3055;50.886;14.814;2023-03-04T14:57:48;5.70;;;4.77;;
6053;SDS011;3055;50.886;14.814;2023-03-04T15:00:29;6.80;;;5.30;;
6053;SDS011;3055;50.886;14.814;2023-03-04T15:02:58;5.97;;;5.33;;
6053;SDS011;3055;50.886;14.814;2023-03-04T15:05:27;5.70;;;4.73;;
6053;SDS011;3055;50.886;14.814;2023-03-04T15:07:55;6.07;;;4.50;;
6053;SDS011;3055;50.886;14.814;2023-03-04T15:10:25;6.60;;;5.50;;
6053;SDS011;3055;50.886;14.814;2023-03-04T15:12:56;7.73;;;5.90;;
6053;SDS011;3055;50.886;14.814;2023-03-04T15:15:29;10.30;;;6.23;;
6053;SDS011;3055;50.886;14.814;2023-03-04T15:18:02;9.70;;;5.67;;
6053;SDS011;3055;50.886;14.814;2023-03-04T15:20:39;6.63;;;5.57;;
6053;SDS011;3055;50.886;14.814;2023-03-04T15:23:06;8.93;;;6.47;;
6053;SDS011;3055;50.886;14.814;2023-03-04T15:25:38;7.10;;;5.47;;
6053;SDS011;3055;50.886;14.814;2023-03-04T15:28:10;9.00;;;6.10;;
6053;SDS011;3055;50.886;14.814;2023-03-04T15:30:41;7.57;;;6.20;;
6053;SDS011;3055;50.886;14.814;2023-03-04T15:33:09;9.47;;;5.50;;
6053;SDS011;3055;50.886;14.814;2023-03-04T15:35:37;9.30;;;5.90;;
6053;SDS011;3055;50.886;14.814;2023-03-04T15:38:06;8.50;;;6.43;;
6053;SDS011;3055;50.886;14.814;2023-03-04T15:40:34;7.70;;;5.87;;
6053;SDS011;3055;50.886;14.814;2023-03-04T15:43:03;8.17;;;5.80;;
6053;SDS011;3055;50.886;14.814;2023-03-04T15:45:35;7.53;;;5.97;;
6053;SDS011;3055;50.886;14.814;2023-03-04T15:48:04;6.40;;;5.00;;